Data for 11/18/2017

Time Sea-Level Adjusted Pressure Absolute Pressure Temperature Relative Humidity Dew Point   
(mb) (inHg) (mb) (inHg) (C) (F) (%) (C) (F)
00:05 1021 30.15 851 25.13 -2.8 26.9 50 -11.8 10.7
00:10 1021 30.15 851 25.13 -3 26.7 53 -11.3 11.6
00:15 1022 30.18 851 25.13 -3.2 26.2 53 -11.6 11.2
00:20 1022 30.18 851 25.13 -3.5 25.8 54 -11.6 11.1
00:25 1022 30.18 851 25.13 -3.8 25.3 54 -11.7 11
00:30 1022 30.18 851 25.13 -3.9 25.1 54 -11.9 10.5
00:35 1022 30.18 851 25.13 -3.6 25.5 53 -11.8 10.8
00:40 1022 30.18 851 25.13 -3.5 25.7 52 -11.9 10.6
00:45 1022 30.18 851 25.13 -3.4 25.9 52 -11.8 10.7
00:50 1022 30.18 851 25.13 -3.2 26.2 50 -12.1 10.2
00:55 1022 30.18 851 25.13 -3.2 26.2 50 -12.1 10.1
01:00 1022 30.18 851 25.13 -3.3 26 50 -12.4 9.7
01:05 1022 30.18 851 25.13 -3.3 26 49 -12.5 9.5
01:10 1022 30.18 851 25.13 -3.3 26 49 -12.7 9.2
01:15 1022 30.18 851 25.13 -3.4 25.9 49 -12.7 9.1
01:20 1022 30.18 851 25.13 -3.4 25.8 50 -12.5 9.4
01:25 1022 30.18 851 25.13 -3.5 25.7 49 -12.7 9.1
01:30 1022 30.18 852 25.16 -3.4 25.8 49 -12.5 9.4
01:35 1022 30.18 852 25.16 -3.5 25.7 50 -12.6 9.3
01:40 1022 30.18 852 25.16 -3.8 25.2 50 -12.8 9
01:45 1022 30.18 852 25.16 -4 24.9 49 -13.1 8.4
01:50 1022 30.18 852 25.16 -3.7 25.4 49 -12.8 9
01:55 1022 30.18 852 25.16 -3.7 25.4 50 -12.7 9.2
02:00 1022 30.18 852 25.16 -3.7 25.3 49 -12.9 8.7
02:05 1023 30.21 852 25.16 -3.6 25.5 50 -12.7 9.1
02:10 1023 30.21 852 25.16 -3.7 25.3 50 -12.6 9.3
02:15 1023 30.21 852 25.16 -3.8 25.1 50 -12.8 9
02:20 1023 30.21 852 25.16 -3.8 25.1 50 -12.7 9.1
02:25 1023 30.21 852 25.16 -3.7 25.3 49 -13 8.5
02:30 1023 30.21 852 25.16 -3.4 25.8 48 -12.9 8.7
02:35 1023 30.21 852 25.16 -3.3 26.1 47 -13.1 8.4
02:40 1023 30.21 852 25.16 -3.2 26.2 47 -13.1 8.4
02:45 1023 30.21 852 25.16 -3.2 26.2 46 -13.1 8.3
02:50 1023 30.21 852 25.16 -3.4 25.9 47 -13.1 8.4
02:55 1023 30.21 852 25.16 -3.4 25.9 46 -13.3 8
03:00 1023 30.21 852 25.16 -3.5 25.8 48 -12.9 8.8
03:05 1023 30.21 852 25.16 -4 24.8 52 -12.5 9.5
03:10 1023 30.21 852 25.16 -4.4 24.2 50 -13.3 8.1
03:15 1023 30.21 852 25.16 -4 24.7 49 -13.3 8.1
03:20 1023 30.21 852 25.16 -3.9 24.9 50 -12.9 8.7
03:25 1023 30.21 852 25.16 -4.2 24.5 51 -12.8 8.9
03:30 1023 30.21 852 25.16 -4.5 24 53 -12.7 9.2
03:35 1023 30.21 852 25.16 -4.7 23.5 54 -12.7 9.2
03:40 1023 30.21 852 25.16 -4.9 23.1 54 -13 8.6
03:45 1023 30.21 852 25.16 -4.9 23.1 55 -12.7 9.1
03:50 1023 30.21 852 25.16 -5.2 22.7 55 -12.8 9
03:55 1023 30.21 852 25.16 -5.2 22.7 54 -13.2 8.3
04:00 1023 30.21 852 25.16 -4.7 23.5 53 -13 8.6
04:05 1023 30.21 852 25.16 -4.8 23.4 54 -12.6 9.2
04:10 1023 30.21 852 25.16 -4.9 23.2 56 -12.4 9.6
04:15 1023 30.21 853 25.19 -5 22.9 58 -12.2 10.1
04:20 1023 30.21 853 25.19 -5.1 22.8 55 -12.8 9
04:25 1023 30.21 853 25.19 -5.1 22.8 55 -12.9 8.8
04:30 1023 30.21 853 25.19 -5.2 22.6 55 -12.9 8.8
04:35 1023 30.21 853 25.19 -5.2 22.6 56 -12.8 8.9
04:40 1023 30.21 853 25.19 -5.2 22.7 59 -12.1 10.3
04:45 1023 30.21 853 25.19 -5.5 22.1 57 -12.7 9.1
04:50 1023 30.21 853 25.19 -5.8 21.6 57 -12.9 8.7
04:55 1024 30.24 853 25.19 -5.8 21.6 57 -13 8.5
05:00 1024 30.24 853 25.19 -5.3 22.4 57 -12.6 9.3
05:05 1024 30.24 853 25.19 -5.2 22.6 58 -12.2 10
05:10 1024 30.24 853 25.19 -5.5 22.2 58 -12.4 9.6
05:15 1024 30.24 853 25.19 -5.7 21.7 60 -12.3 9.9
05:20 1024 30.24 853 25.19 -5.8 21.5 58 -12.8 9
05:25 1024 30.24 853 25.19 -5.7 21.7 59 -12.5 9.5
05:30 1023 30.21 853 25.19 -5.5 22 56 -12.9 8.8
05:35 1023 30.21 853 25.19 -5.5 22.1 58 -12.6 9.4
05:40 1024 30.24 853 25.19 -5.5 22.2 58 -12.5 9.6
05:45 1024 30.24 853 25.19 -5.5 22.1 60 -12.1 10.2
05:50 1024 30.24 853 25.19 -5.4 22.3 57 -12.6 9.3
05:55 1024 30.24 853 25.19 -5.1 22.7 57 -12.5 9.6
06:00 1024 30.24 853 25.19 -5 23 58 -12.1 10.1
06:05 1024 30.24 853 25.19 -5 23 55 -12.7 9.2
06:10 1024 30.24 853 25.19 -4.6 23.7 55 -12.4 9.7
06:15 1024 30.24 853 25.19 -4.3 24.3 54 -12.3 9.8
06:20 1024 30.24 853 25.19 -4.1 24.6 58 -11.3 11.7
06:25 1024 30.24 853 25.19 -4.4 24 58 -11.6 11.2
06:30 1024 30.24 853 25.19 -4.8 23.3 57 -12.1 10.2
06:35 1024 30.24 853 25.19 -5 23 55 -12.6 9.2
06:40 1024 30.24 853 25.19 -4.7 23.6 55 -12.4 9.8
06:45 1024 30.24 853 25.19 -4.2 24.4 52 -12.6 9.3
06:50 1024 30.24 853 25.19 -3.9 25 52 -12.3 9.8
06:55 1024 30.24 853 25.19 -3.9 25 52 -12.4 9.7
07:00 1024 30.24 853 25.19 -3.7 25.3 52 -12.3 9.9
07:05 1024 30.24 853 25.19 -3.5 25.6 52 -12 10.3
07:10 1024 30.24 853 25.19 -3.4 25.9 51 -12.2 10.1
07:15 1024 30.24 853 25.19 -3.2 26.2 50 -12.2 10.1
07:20 1024 30.24 853 25.19 -3.1 26.5 50 -12.1 10.2
07:25 1024 30.24 853 25.19 -3.2 26.3 53 -11.5 11.2
07:30 1024 30.24 854 25.22 -3.5 25.6 54 -11.6 11.2
07:35 1024 30.24 854 25.22 -3.7 25.3 55 -11.5 11.3
07:40 1024 30.24 854 25.22 -3.7 25.3 55 -11.5 11.3
07:45 1024 30.24 854 25.22 -3.8 25.1 57 -11.3 11.7
07:50 1025 30.27 854 25.22 -4.3 24.3 60 -11 12.3
07:55 1025 30.27 854 25.22 -4.6 23.8 60 -11.2 11.9
08:00 1025 30.27 854 25.22 -4.6 23.7 61 -11.1 12
08:05 1025 30.27 854 25.22 -4.4 24.1 57 -11.7 10.9
08:10 1025 30.27 854 25.22 -3.8 25.1 55 -11.7 11
08:15 1025 30.27 854 25.22 -3.4 25.9 53 -11.7 10.9
08:20 1025 30.27 854 25.22 -2.8 26.9 52 -11.4 11.5
08:25 1025 30.27 854 25.22 -2.8 26.9 51 -11.7 11
08:30 1025 30.27 854 25.22 -2.6 27.4 51 -11.5 11.3
08:35 1025 30.27 854 25.22 -2.3 27.8 49 -11.6 11.1
08:40 1025 30.27 854 25.22 -1.9 28.7 47 -11.8 10.7
08:45 1025 30.27 854 25.22 -1.6 29.1 46 -11.7 11
08:50 1025 30.27 854 25.22 -1.2 29.9 46 -11.5 11.3
08:55 1025 30.27 854 25.22 -1.1 30 46 -11.5 11.4
09:00 1025 30.27 854 25.22 -1.2 29.9 46 -11.4 11.5
09:05 1025 30.27 854 25.22 -1.1 30 44 -11.9 10.6
09:10 1025 30.27 854 25.22 -0.8 30.6 43 -11.8 10.8
09:15 1025 30.27 854 25.22 -0.5 31.2 42 -11.9 10.6
09:20 1025 30.27 854 25.22 -0.3 31.5 44 -11.3 11.7
09:25 1025 30.27 854 25.22 -0.9 30.3 44 -11.7 10.9
09:30 1025 30.27 854 25.22 -0.8 30.6 44 -11.6 11.2
09:35 1025 30.27 854 25.22 0.1 32.3 41 -11.7 11
09:40 1025 30.27 854 25.22 0.5 33 41 -11.2 11.8
09:45 1025 30.27 854 25.22 0.7 33.2 40 -11.4 11.5
09:50 1025 30.27 854 25.22 0.9 33.6 38 -11.8 10.8
09:55 1025 30.27 854 25.22 0.9 33.7 38 -12 10.5
10:00 1025 30.27 854 25.22 1 33.7 40 -11.2 11.8
10:05 1025 30.27 854 25.22 0.2 32.4 40 -11.9 10.6
10:10 1025 30.27 854 25.22 0.6 33.2 40 -11.3 11.6
10:15 1025 30.27 854 25.22 1.2 34.2 38 -11.5 11.3
10:20 1025 30.27 854 25.22 1.2 34.2 38 -11.4 11.4
10:25 1025 30.27 854 25.22 0.4 32.8 40 -11.7 10.9
10:30 1025 30.27 854 25.22 1.2 34.1 37 -11.9 10.6
10:35 1025 30.27 854 25.22 1.3 34.3 37 -12 10.4
10:40 1025 30.27 854 25.22 1.6 35 35 -12.2 10.1
10:45 1025 30.27 854 25.22 2.1 35.8 35 -12 10.4
10:50 1025 30.27 854 25.22 2.3 36.2 33 -12.3 9.9
10:55 1025 30.27 854 25.22 1.9 35.3 36 -11.8 10.8
11:00 1025 30.27 854 25.22 1.8 35.2 36 -11.7 11
11:05 1025 30.27 854 25.22 1.5 34.7 36 -12 10.5
11:10 1025 30.27 854 25.22 1.9 35.4 37 -11.2 11.9
11:15 1025 30.27 854 25.22 2 35.5 35 -12.1 10.3
11:20 1025 30.27 854 25.22 2 35.5 34 -12.3 9.8
11:25 1025 30.27 854 25.22 1.9 35.4 36 -11.8 10.7
11:30 1025 30.27 854 25.22 2.3 36.1 34 -11.9 10.6
11:35 1025 30.27 854 25.22 2.7 36.8 33 -12 10.4
11:40 1025 30.27 854 25.22 2.6 36.7 32 -12.4 9.6
11:45 1025 30.27 854 25.22 3 37.4 32 -12.2 10
11:50 1025 30.27 854 25.22 2.7 36.8 37 -10.7 12.8
11:55 1025 30.27 854 25.22 1.5 34.7 37 -11.7 10.9
12:00 1025 30.27 854 25.22 1.5 34.7 35 -12.5 9.4
12:05 1024 30.24 854 25.22 0.7 33.3 38 -12 10.4
12:10 1024 30.24 854 25.22 0.8 33.4 36 -12.6 9.3
12:15 1024 30.24 854 25.22 1.4 34.4 38 -11.4 11.4
12:20 1024 30.24 854 25.22 1.5 34.8 36 -11.9 10.6
12:25 1024 30.24 854 25.22 1.5 34.7 38 -11.5 11.4
12:30 1024 30.24 854 25.22 1.2 34.2 36 -12.1 10.2
12:35 1024 30.24 853 25.19 1.6 34.8 36 -12.1 10.2
12:40 1024 30.24 853 25.19 2.2 36 35 -11.6 11
12:45 1024 30.24 853 25.19 2.5 36.6 34 -11.8 10.7
12:50 1024 30.24 853 25.19 2.8 37.1 33 -12 10.5
12:55 1024 30.24 853 25.19 2.6 36.6 34 -11.7 10.9
13:00 1024 30.24 853 25.19 2.4 36.2 34 -11.9 10.5
13:05 1024 30.24 853 25.19 2.4 36.3 34 -11.8 10.8
13:10 1024 30.24 853 25.19 2.3 36.1 35 -11.5 11.2
13:15 1024 30.24 853 25.19 2.4 36.3 36 -11.2 11.9
13:20 1024 30.24 853 25.19 2.4 36.4 36 -11.3 11.6
13:25 1024 30.24 853 25.19 2.7 36.8 33 -12 10.4
13:30 1024 30.24 853 25.19 2.6 36.7 35 -11.3 11.7
13:35 1024 30.24 853 25.19 2.5 36.5 35 -11.4 11.5
13:40 1024 30.24 853 25.19 2.3 36.1 34 -12 10.3
13:45 1024 30.24 853 25.19 2.2 36 36 -11.4 11.4
13:50 1024 30.24 853 25.19 2.4 36.4 36 -11.3 11.6
13:55 1024 30.24 853 25.19 2.8 37 35 -11.3 11.7
14:00 1024 30.24 853 25.19 2.5 36.5 37 -10.8 12.6
14:05 1024 30.24 853 25.19 2.2 36 37 -10.9 12.4
14:10 1024 30.24 853 25.19 2 35.7 37 -11.1 12
14:15 1024 30.24 853 25.19 1.8 35.2 39 -10.9 12.4
14:20 1024 30.24 853 25.19 1.7 35 39 -10.8 12.6
14:25 1024 30.24 853 25.19 1.6 34.9 39 -10.8 12.5
14:30 1024 30.24 853 25.19 1.4 34.5 42 -10.2 13.6
14:35 1024 30.24 853 25.19 0.8 33.5 43 -10.5 13.1
14:40 1024 30.24 853 25.19 0.7 33.2 43 -10.5 13
14:45 1024 30.24 853 25.19 0.4 32.7 43 -10.7 12.8
14:50 1024 30.24 853 25.19 0.4 32.6 44 -10.5 13.2
14:55 1024 30.24 853 25.19 0.1 32.2 45 -10.3 13.4
15:00 1024 30.24 853 25.19 0.2 32.3 44 -10.6 12.9
15:05 1024 30.24 853 25.19 0.3 32.5 44 -10.6 13
15:10 1024 30.24 853 25.19 0.3 32.6 43 -10.7 12.7
15:15 1024 30.24 853 25.19 0.3 32.6 42 -11 12.2
15:20 1024 30.24 853 25.19 0.2 32.4 42 -11.2 11.8
15:25 1023 30.21 853 25.19 0.1 32.2 43 -11.2 11.8
15:30 1023 30.21 853 25.19 0.1 32.1 42 -11.5 11.4
15:35 1023 30.21 853 25.19 0.3 32.6 42 -11.2 11.9
15:40 1024 30.24 853 25.19 0.4 32.7 41 -11.4 11.5
15:45 1023 30.21 853 25.19 0.6 33 40 -11.4 11.5
15:50 1024 30.24 853 25.19 0.5 32.9 42 -11 12.1
15:55 1024 30.24 853 25.19 0.6 33 41 -11.2 11.8
16:00 1023 30.21 853 25.19 0.6 33.1 43 -10.6 13
16:05 1023 30.21 853 25.19 0.7 33.3 42 -10.9 12.4
16:10 1023 30.21 853 25.19 0.7 33.3 41 -11.1 12
16:15 1023 30.21 853 25.19 0.5 32.9 42 -10.9 12.3
16:20 1023 30.21 852 25.16 0.4 32.7 43 -10.9 12.4
16:25 1023 30.21 852 25.16 0.3 32.5 42 -11.3 11.6
16:30 1023 30.21 852 25.16 0.1 32.2 43 -10.9 12.3
16:35 1023 30.21 852 25.16 0.3 32.6 43 -10.9 12.4
16:40 1023 30.21 852 25.16 0.6 33.1 42 -10.7 12.7
16:45 1023 30.21 852 25.16 0.3 32.5 43 -10.8 12.5
16:50 1023 30.21 852 25.16 0 32.1 43 -11 12.2
16:55 1023 30.21 852 25.16 -0 32 44 -10.9 12.4
17:00 1023 30.21 852 25.16 -0.2 31.7 43 -11.4 11.5
17:05 1023 30.21 852 25.16 -0.2 31.6 42 -11.5 11.2
17:10 1023 30.21 852 25.16 -0.1 31.7 41 -11.9 10.5
17:15 1023 30.21 852 25.16 -0.2 31.7 44 -11 12.2
17:20 1023 30.21 852 25.16 -0.3 31.5 46 -10.5 13.1
17:25 1023 30.21 852 25.16 -0.4 31.3 45 -11 12.3
17:30 1023 30.21 852 25.16 -0.7 30.8 48 -10.4 13.3
17:35 1023 30.21 852 25.16 -0.9 30.4 50 -10 14
17:40 1023 30.21 852 25.16 -1.3 29.8 51 -10.1 13.9
17:45 1023 30.21 852 25.16 -1.4 29.5 51 -10.2 13.7
17:50 1023 30.21 852 25.16 -1.3 29.7 51 -10.2 13.6
17:55 1023 30.21 852 25.16 -1.2 29.8 50 -10.2 13.6
18:00 1023 30.21 852 25.16 -1.1 30 50 -10.3 13.5
18:05 1022 30.18 852 25.16 -1.1 30.1 48 -10.6 12.9
18:10 1022 30.18 852 25.16 -0.9 30.5 47 -10.7 12.7
18:15 1022 30.18 852 25.16 -0.7 30.8 47 -10.6 12.9
18:20 1022 30.18 852 25.16 -0.9 30.3 51 -9.7 14.5
18:25 1022 30.18 852 25.16 -1.2 29.8 50 -10.4 13.2
18:30 1022 30.18 852 25.16 -1.2 29.8 49 -10.7 12.8
18:35 1022 30.18 852 25.16 -1.2 29.8 48 -10.9 12.4
18:40 1022 30.18 851 25.13 -1.4 29.4 50 -10.7 12.8
18:45 1022 30.18 851 25.13 -1.6 29 51 -10.5 13.1
18:50 1022 30.18 851 25.13 -1.7 28.9 50 -10.9 12.4
18:55 1022 30.18 851 25.13 -1.8 28.7 52 -10.5 13.2
19:00 1022 30.18 851 25.13 -2 28.5 52 -10.7 12.8
19:05 1022 30.18 851 25.13 -2 28.3 51 -10.9 12.5
19:10 1022 30.18 851 25.13 -1.9 28.5 52 -10.6 12.9
19:15 1022 30.18 851 25.13 -1.8 28.8 50 -10.9 12.4
19:20 1022 30.18 851 25.13 -1.6 29.1 50 -10.8 12.6
19:25 1022 30.18 851 25.13 -1.7 29 50 -10.8 12.6
19:30 1022 30.18 851 25.13 -1.7 28.9 51 -10.6 12.8
19:35 1022 30.18 851 25.13 -1.7 28.9 51 -10.6 12.9
19:40 1022 30.18 851 25.13 -1.9 28.6 51 -10.7 12.8
19:45 1022 30.18 851 25.13 -2 28.5 52 -10.7 12.8
19:50 1022 30.18 851 25.13 -1.8 28.8 51 -10.8 12.6
19:55 1022 30.18 851 25.13 -1.6 29.2 50 -10.7 12.8
20:00 1022 30.18 851 25.13 -1.6 29.1 50 -10.7 12.7
20:05 1022 30.18 851 25.13 -1.7 29 50 -10.9 12.4
20:10 1022 30.18 851 25.13 -1.7 29 51 -10.6 12.9
20:15 1022 30.18 851 25.13 -1.9 28.5 51 -10.8 12.6
20:20 1022 30.18 851 25.13 -2 28.4 51 -10.8 12.6
20:25 1022 30.18 851 25.13 -2.1 28.2 51 -10.9 12.4
20:30 1022 30.18 851 25.13 -2.2 28 52 -10.9 12.4
20:35 1022 30.18 851 25.13 -2.1 28.2 51 -10.9 12.4
20:40 1022 30.18 851 25.13 -2 28.4 51 -10.9 12.4
20:45 1022 30.18 851 25.13 -1.8 28.7 50 -10.8 12.5
20:50 1022 30.18 851 25.13 -1.8 28.8 50 -10.9 12.4
20:55 1022 30.18 851 25.13 -1.8 28.8 51 -10.6 12.9
21:00 1022 30.18 851 25.13 -2.4 27.7 54 -10.5 13.1
21:05 1022 30.18 851 25.13 -2.7 27.1 54 -10.8 12.5
21:10 1022 30.18 851 25.13 -2.8 26.9 55 -10.7 12.7
21:15 1021 30.15 851 25.13 -2.7 27.2 54 -10.8 12.6
21:20 1021 30.15 851 25.13 -2.3 27.8 54 -10.4 13.3
21:25 1021 30.15 851 25.13 -2.2 28 53 -10.4 13.2
21:30 1021 30.15 851 25.13 -2.6 27.4 57 -10 13.9
21:35 1021 30.15 851 25.13 -3 26.6 58 -10 13.9
21:40 1022 30.18 851 25.13 -3.2 26.2 59 -10.1 13.8
21:45 1022 30.18 851 25.13 -3.5 25.6 60 -10.2 13.7
21:50 1022 30.18 851 25.13 -3.9 25 61 -10.2 13.6
21:55 1022 30.18 851 25.13 -4.2 24.5 62 -10.3 13.4
22:00 1022 30.18 851 25.13 -4.5 23.9 63 -10.5 13
22:05 1022 30.18 851 25.13 -4.5 24 62 -10.6 12.8
22:10 1021 30.15 851 25.13 -3.8 25.2 59 -10.7 12.7
22:15 1021 30.15 851 25.13 -3.4 25.9 56 -10.9 12.4
22:20 1021 30.15 851 25.13 -3.6 25.6 58 -10.8 12.6
22:25 1021 30.15 851 25.13 -3.5 25.8 58 -10.6 12.9
22:30 1021 30.15 851 25.13 -3.4 25.9 59 -10.3 13.4
22:35 1021 30.15 851 25.13 -3.6 25.4 58 -10.7 12.8
22:40 1021 30.15 851 25.13 -3.6 25.5 58 -10.8 12.6
22:45 1021 30.15 851 25.13 -3.8 25.1 60 -10.5 13.1
22:50 1021 30.15 851 25.13 -4 24.8 59 -10.9 12.4
22:55 1021 30.15 851 25.13 -3.9 25 60 -10.6 12.8
23:00 1021 30.15 851 25.13 -4 24.8 59 -10.9 12.5
23:05 1021 30.15 851 25.13 -4.3 24.3 60 -10.8 12.5
23:10 1021 30.15 851 25.13 -4.6 23.7 62 -10.7 12.7
23:15 1021 30.15 851 25.13 -4.8 23.4 63 -10.9 12.5
23:20 1021 30.15 851 25.13 -4.2 24.4 65 -9.9 14.2
23:25 1021 30.15 850 25.1 -4.1 24.6 63 -10.3 13.5
23:30 1021 30.15 850 25.1 -4.2 24.4 61 -10.6 12.9
23:35 1021 30.15 850 25.1 -3.8 25.2 60 -10.4 13.2
23:40 1021 30.15 850 25.1 -3.9 24.9 62 -10.2 13.6
23:45 1021 30.15 850 25.1 -4.1 24.7 61 -10.4 13.2
23:50 1021 30.15 850 25.1 -4.4 24.2 63 -10.3 13.5
23:55 1021 30.15 851 25.13 -4.9 23.1 66 -10.4 13.3
24:00 1021 30.15 851 25.13 -5.5 22.2 68 -10.5 13.1